Time;durP1;ratioP1;P1;durP2;ratioP2;P2;SDS_P1;SDS_P2;PMS_P1;PMS_P2;Temp;Humidity;BMP_temperature;BMP_pressure;BME280_temperature;BME280_humidity;BME280_pressure;Samples;Min_cycle;Max_cycle;Signal;HPM_P1;HPM_P2
2024/04/03 00:00:43;;;;;;;19.63;5.18;;;;;;;9.09;93.57;100545.28;5061250;28;21871;-49
2024/04/03 00:03:09;;;;;;;24.95;5.45;;;;;;;9.07;94.16;100542.75;5061481;28;20168;-54
2024/04/03 00:05:36;;;;;;;25.08;5.13;;;;;;;9.19;93.53;100544.31;5058203;28;20059;-48
2024/04/03 00:08:02;;;;;;;30.88;5.53;;;;;;;9.24;93.67;100543.94;5059259;28;20049;-52
2024/04/03 00:10:28;;;;;;;27.58;5.28;;;;;;;9.12;94.10;100539.69;5060362;28;20048;-52
2024/04/03 00:12:53;;;;;;;32.17;5.65;;;;;;;9.15;93.86;100540.25;5068829;28;20083;-50
2024/04/03 00:15:19;;;;;;;34.15;6.43;;;;;;;9.18;93.82;100541.81;5039854;28;20408;-53
2024/04/03 00:17:45;;;;;;;23.73;4.95;;;;;;;9.04;94.11;100542.19;5062537;28;20378;-49
2024/04/03 00:20:11;;;;;;;33.70;7.28;;;;;;;9.15;93.46;100539.41;5056358;28;20535;-50
2024/04/03 00:22:37;;;;;;;34.65;5.82;;;;;;;9.09;93.81;100531.97;5059459;28;20523;-51
2024/04/03 00:25:03;;;;;;;35.05;6.32;;;;;;;9.03;94.09;100525.38;5043265;28;20401;-50
2024/04/03 00:27:29;;;;;;;28.73;6.28;;;;;;;8.89;94.27;100524.88;5042758;28;20048;-49
2024/04/03 00:29:55;;;;;;;36.17;5.80;;;;;;;8.89;93.91;100528.38;5042833;28;20102;-50
2024/04/03 00:32:21;;;;;;;30.35;5.03;;;;;;;8.87;94.10;100518.84;5055684;28;20144;-52
2024/04/03 00:34:47;;;;;;;29.92;5.45;;;;;;;8.81;94.19;100518.41;5052889;28;20052;-52
2024/04/03 00:37:12;;;;;;;31.30;6.35;;;;;;;8.83;94.36;100521.78;5060162;28;20174;-53
2024/04/03 00:39:38;;;;;;;26.55;6.63;;;;;;;8.85;94.15;100517.16;5060454;28;20062;-48
2024/04/03 00:42:04;;;;;;;35.38;7.97;;;;;;;8.75;94.70;100513.63;5059400;28;20084;-55
2024/04/03 00:44:31;;;;;;;32.53;6.22;;;;;;;8.81;94.69;100515.75;5059873;28;20119;-52
2024/04/03 00:47:01;;;;;;;31.50;5.82;;;;;;;8.81;94.11;100515.75;5062147;28;20377;-51
2024/04/03 00:49:27;;;;;;;31.07;7.23;;;;;;;8.82;94.58;100505.97;5054623;28;20056;-52
2024/04/03 00:51:53;;;;;;;23.67;5.15;;;;;;;8.92;94.59;100512.16;5056224;28;20463;-54
2024/04/03 00:54:21;;;;;;;39.83;6.72;;;;;;;8.89;94.14;100512.44;5062867;28;20060;-49
2024/04/03 00:56:47;;;;;;;27.63;5.40;;;;;;;8.81;94.98;100509.59;5064662;28;20113;-49
2024/04/03 00:59:15;;;;;;;28.58;7.07;;;;;;;8.73;95.00;100502.28;5056050;28;20078;-45
2024/04/03 01:01:41;;;;;;;29.90;5.57;;;;;;;8.69;95.16;100498.22;5054505;28;20052;-53
2024/04/03 01:04:07;;;;;;;25.92;6.63;;;;;;;8.61;95.22;100497.16;5056028;28;20496;-47
2024/04/03 01:06:35;;;;;;;36.20;6.10;;;;;;;8.59;95.59;100491.97;5055998;28;20049;-51
2024/04/03 01:09:01;;;;;;;35.08;6.65;;;;;;;8.65;95.48;100487.94;5058687;28;20051;-50
2024/04/03 01:11:26;;;;;;;32.90;5.68;;;;;;;8.64;94.91;100483.63;5058139;28;20168;-48
2024/04/03 01:13:52;;;;;;;36.90;7.82;;;;;;;8.58;95.18;100482.31;5060404;28;20107;-53
2024/04/03 01:16:18;;;;;;;25.15;5.93;;;;;;;8.56;95.14;100480.78;5053574;28;20045;-49
2024/04/03 01:18:44;;;;;;;24.40;6.30;;;;;;;8.48;95.77;100470.81;5050334;28;20048;-46
2024/04/03 01:21:09;;;;;;;23.30;6.55;;;;;;;8.51;95.14;100486.47;5056417;28;20053;-50
2024/04/03 01:23:35;;;;;;;28.52;6.43;;;;;;;8.52;95.22;100488.16;5053182;28;20055;-50
2024/04/03 01:26:01;;;;;;;28.35;7.32;;;;;;;8.47;94.88;100476.25;5057433;28;20048;-51
2024/04/03 01:28:26;;;;;;;26.35;6.88;;;;;;;8.50;94.89;100473.34;5057652;28;20053;-51
2024/04/03 01:30:52;;;;;;;29.52;6.72;;;;;;;8.57;94.71;100478.00;5062371;28;20037;-52
2024/04/03 01:33:18;;;;;;;27.63;7.75;;;;;;;8.59;94.54;100476.03;5055717;28;20102;-50
2024/04/03 01:35:43;;;;;;;24.85;7.22;;;;;;;8.57;94.46;100472.69;5063096;28;20098;-47
2024/04/03 01:38:12;;;;;;;23.98;7.65;;;;;;;8.59;94.51;100468.06;5056908;28;20044;-48
2024/04/03 01:40:37;;;;;;;26.00;6.60;;;;;;;8.65;94.26;100470.19;5055100;28;20049;-49
2024/04/03 01:43:03;;;;;;;29.00;7.60;;;;;;;8.67;94.51;100467.41;5073265;28;20488;-53
2024/04/03 01:45:29;;;;;;;26.88;6.80;;;;;;;8.67;94.26;100465.59;5055339;28;20147;-52
2024/04/03 01:47:55;;;;;;;22.35;7.05;;;;;;;8.73;94.30;100464.22;5062567;28;20131;-51
2024/04/03 01:50:32;;;;;;;27.80;7.68;;;;;;;8.70;93.99;100465.34;5056968;28;20059;-49
2024/04/03 01:52:58;;;;;;;24.08;7.07;;;;;;;8.77;93.99;100461.19;5058024;28;20044;-50
2024/04/03 01:55:24;;;;;;;28.73;6.93;;;;;;;8.77;93.68;100458.53;5061700;28;20071;-52
2024/04/03 01:57:49;;;;;;;26.17;7.20;;;;;;;8.71;93.66;100460.88;5053635;28;20045;-50
2024/04/03 02:00:15;;;;;;;21.45;6.25;;;;;;;8.76;93.81;100459.50;5061388;28;20144;-47
2024/04/03 02:02:41;;;;;;;25.92;6.85;;;;;;;8.55;94.26;100463.16;5051620;28;20041;-50
2024/04/03 02:05:06;;;;;;;21.55;6.03;;;;;;;8.75;93.96;100457.81;5057474;28;20099;-53
2024/04/03 02:07:32;;;;;;;24.10;5.95;;;;;;;8.61;94.19;100458.16;5052878;28;20051;-49
2024/04/03 02:09:58;;;;;;;23.38;5.90;;;;;;;8.55;95.11;100457.84;5053643;28;20049;-50
2024/04/03 02:12:26;;;;;;;31.17;5.65;;;;;;;8.81;93.66;100461.75;5056016;28;20239;-52
2024/04/03 02:14:52;;;;;;;34.35;7.00;;;;;;;8.78;93.61;100464.69;5053262;28;20703;-50
2024/04/03 02:17:18;;;;;;;25.60;5.60;;;;;;;9.06;92.65;100457.78;5059314;28;20059;-50
2024/04/03 02:19:43;;;;;;;26.60;5.93;;;;;;;8.90;92.95;100450.34;5069954;28;20049;-51
2024/04/03 02:22:09;;;;;;;29.33;7.25;;;;;;;8.71;93.79;100451.09;5053060;28;20492;-48
2024/04/03 02:24:35;;;;;;;34.15;6.57;;;;;;;8.87;92.87;100457.72;5056874;28;20135;-48
2024/04/03 02:27:03;;;;;;;26.73;6.40;;;;;;;8.68;94.04;100450.50;5061154;28;20284;-53
2024/04/03 02:29:29;;;;;;;25.33;5.88;;;;;;;8.66;95.37;100455.94;5057646;28;20125;-52
2024/04/03 02:31:54;;;;;;;29.65;5.68;;;;;;;8.74;94.22;100450.81;5055284;28;20040;-49
2024/04/03 02:34:20;;;;;;;19.70;6.03;;;;;;;8.64;94.67;100449.94;5055728;28;20099;-48
2024/04/03 02:36:46;;;;;;;28.42;6.20;;;;;;;8.61;95.67;100436.91;5058379;28;20052;-49
2024/04/03 02:39:12;;;;;;;26.42;6.75;;;;;;;8.70;94.75;100446.75;5046904;28;20508;-48
2024/04/03 02:41:37;;;;;;;23.40;5.75;;;;;;;8.72;95.03;100444.78;5043622;28;20520;-46
2024/04/03 02:44:03;;;;;;;26.63;6.55;;;;;;;8.58;95.64;100446.97;5041784;28;20057;-52
2024/04/03 02:46:29;;;;;;;23.48;5.45;;;;;;;8.69;94.18;100437.09;5038982;28;20045;-51
2024/04/03 02:48:55;;;;;;;22.50;6.22;;;;;;;8.78;94.45;100436.28;5043323;28;20049;-47
2024/04/03 02:51:23;;;;;;;25.42;6.57;;;;;;;8.88;94.35;100439.00;5048581;28;20048;-48
2024/04/03 02:53:49;;;;;;;30.60;6.40;;;;;;;8.88;94.73;100436.34;5043843;28;20071;-53
2024/04/03 02:56:15;;;;;;;30.20;7.20;;;;;;;9.02;94.36;100429.81;5041961;28;20408;-52
2024/04/03 02:58:41;;;;;;;20.42;5.95;;;;;;;9.06;94.00;100429.41;5041488;28;20551;-50
2024/04/03 03:01:08;;;;;;;26.90;7.38;;;;;;;9.18;93.12;100431.00;5043334;28;20049;-53
2024/04/03 03:03:35;;;;;;;23.88;6.45;;;;;;;9.07;93.28;100424.94;5038920;28;20519;-48
2024/04/03 03:06:03;;;;;;;25.45;7.00;;;;;;;9.14;93.82;100426.06;5042167;28;20432;-51
2024/04/03 03:08:30;;;;;;;26.75;6.70;;;;;;;8.98;93.45;100426.59;5040745;28;20049;-52
2024/04/03 03:10:57;;;;;;;20.90;5.88;;;;;;;8.85;94.78;100412.72;5042980;28;20044;-49
2024/04/03 03:13:26;;;;;;;18.13;6.70;;;;;;;8.89;94.59;100415.91;5036720;28;20060;-52
2024/04/03 03:15:53;;;;;;;22.67;6.35;;;;;;;9.02;94.60;100421.84;5025492;28;20518;-51
2024/04/03 03:18:20;;;;;;;24.55;6.55;;;;;;;8.99;94.62;100414.16;5040857;28;20690;-52
2024/04/03 03:20:48;;;;;;;25.92;6.47;;;;;;;9.07;94.40;100415.13;5043936;28;20406;-46
2024/04/03 03:23:14;;;;;;;31.23;6.90;;;;;;;9.05;94.25;100408.28;5042510;28;20470;-51
2024/04/03 03:25:41;;;;;;;27.27;6.18;;;;;;;8.95;94.88;100404.75;5046061;28;20048;-47
2024/04/03 03:28:07;;;;;;;19.40;7.40;;;;;;;8.93;94.92;100406.69;5048578;28;20415;-51
2024/04/03 03:30:33;;;;;;;21.65;6.00;;;;;;;8.82;94.78;100397.03;5058587;28;20040;-51
2024/04/03 03:32:58;;;;;;;22.25;6.22;;;;;;;8.91;94.53;100392.72;5060150;28;20036;-51
2024/04/03 03:35:24;;;;;;;22.27;6.57;;;;;;;9.03;94.17;100392.47;5054363;28;20144;-46
2024/04/03 03:37:50;;;;;;;17.70;6.18;;;;;;;8.88;95.02;100387.66;5059402;28;20068;-53
2024/04/03 03:40:16;;;;;;;20.27;6.18;;;;;;;8.96;94.57;100390.50;5071905;28;20513;-52
2024/04/03 03:42:42;;;;;;;29.83;7.43;;;;;;;8.92;95.11;100389.91;5056182;28;20591;-49
2024/04/03 03:45:08;;;;;;;22.40;6.88;;;;;;;8.85;94.87;100383.47;5065374;28;20062;-52
2024/04/03 03:47:33;;;;;;;21.95;6.32;;;;;;;8.88;95.65;100387.66;5057816;28;20505;-50
2024/04/03 03:52:44;;;;;;;23.70;6.85;;;;;;;9.04;95.08;100374.72;5059922;28;20097;-52
2024/04/03 03:55:09;;;;;;;23.73;8.02;;;;;;;9.00;94.82;100375.94;5064887;28;20500;-52
2024/04/03 03:57:35;;;;;;;23.25;7.00;;;;;;;8.96;95.06;100370.06;5047334;28;20177;-49
2024/04/03 04:00:01;;;;;;;16.42;6.22;;;;;;;8.95;95.00;100371.03;5054245;28;20069;-48
2024/04/03 04:02:27;;;;;;;24.02;7.22;;;;;;;8.88;95.40;100366.41;5073377;28;20056;-53
2024/04/03 04:04:53;;;;;;;22.42;7.95;;;;;;;8.75;95.76;100369.31;5057224;28;20049;-48
2024/04/03 04:07:20;;;;;;;23.00;8.25;;;;;;;8.63;97.20;100360.59;5069822;28;20047;-53
2024/04/03 04:09:50;;;;;;;32.42;7.50;;;;;;;8.74;96.81;100365.81;5061674;28;20040;-52
2024/04/03 04:12:17;;;;;;;22.88;7.95;;;;;;;8.84;96.56;100365.84;5058615;28;20044;-54
2024/04/03 04:14:51;;;;;;;26.33;7.72;;;;;;;8.84;96.19;100366.69;5042241;28;20053;-45
2024/04/03 04:17:19;;;;;;;25.25;8.27;;;;;;;8.87;96.17;100362.91;5060754;28;20059;-50
2024/04/03 04:19:45;;;;;;;22.67;8.10;;;;;;;8.89;96.17;100362.78;5068048;28;20640;-50
2024/04/03 04:22:12;;;;;;;21.75;8.65;;;;;;;8.78;96.42;100356.56;5060146;28;20052;-53
2024/04/03 04:24:39;;;;;;;29.95;8.20;;;;;;;8.83;96.00;100356.19;5041278;28;20055;-51
2024/04/03 04:27:07;;;;;;;26.83;8.45;;;;;;;8.81;96.15;100364.28;5045845;28;20047;-52
2024/04/03 04:29:37;;;;;;;24.90;8.60;;;;;;;8.87;96.33;100367.38;5058846;28;20059;-52
2024/04/03 04:32:04;;;;;;;30.00;9.30;;;;;;;8.88;96.19;100355.78;5058949;28;20415;-47
2024/04/03 04:34:30;;;;;;;26.02;8.63;;;;;;;8.90;95.89;100353.81;5044133;28;20044;-49
2024/04/03 04:36:56;;;;;;;26.85;9.85;;;;;;;8.80;95.96;100354.63;5044396;28;20047;-50
2024/04/03 04:39:22;;;;;;;28.75;9.70;;;;;;;8.79;96.49;100357.41;5043154;28;20049;-50
2024/04/03 04:41:52;;;;;;;35.58;9.50;;;;;;;8.81;96.85;100353.66;5044571;28;20072;-48
2024/04/03 04:44:19;;;;;;;21.17;9.07;;;;;;;8.82;96.95;100357.16;5043556;28;20057;-49
2024/04/03 04:46:48;;;;;;;29.05;10.73;;;;;;;8.85;96.16;100359.56;5043763;28;20049;-53
2024/04/03 04:49:18;;;;;;;27.60;10.77;;;;;;;8.84;96.43;100357.88;5044791;28;20144;-51
2024/04/03 04:51:44;;;;;;;30.17;11.18;;;;;;;8.95;96.03;100363.06;5045188;28;20054;-52
2024/04/03 04:54:15;;;;;;;22.40;10.52;;;;;;;8.94;95.93;100357.88;5047974;28;20053;-52
2024/04/03 04:56:41;;;;;;;29.92;10.90;;;;;;;8.85;95.55;100363.03;5059521;28;20048;-50
2024/04/03 04:59:08;;;;;;;27.58;11.90;;;;;;;9.00;96.04;100362.66;5062960;28;20430;-50
2024/04/03 05:01:38;;;;;;;31.30;11.55;;;;;;;9.01;95.70;100351.03;5062715;28;20054;-49
2024/04/03 05:04:05;;;;;;;28.30;10.90;;;;;;;9.03;95.66;100352.59;5043040;28;20041;-49
2024/04/03 05:06:31;;;;;;;30.75;12.85;;;;;;;8.83;96.68;100349.06;5043011;28;20542;-49
2024/04/03 05:08:57;;;;;;;34.55;13.50;;;;;;;9.00;96.52;100341.38;5045055;28;20788;-52
2024/04/03 05:11:23;;;;;;;29.13;11.82;;;;;;;8.90;96.53;100348.50;5043065;28;20693;-52
2024/04/03 05:13:49;;;;;;;28.73;12.27;;;;;;;8.99;96.02;100337.06;5043807;28;20506;-52
2024/04/03 05:16:20;;;;;;;32.47;12.32;;;;;;;9.04;95.82;100337.50;5044465;28;20463;-51
2024/04/03 05:18:46;;;;;;;;;;;;;;;9.00;95.34;100325.44;5043236;28;20930;-52
2024/04/03 05:21:13;;;;;;;38.55;13.75;;;;;;;8.96;96.77;100326.69;5051619;28;19925;-50
2024/04/03 05:23:39;;;;;;;30.88;13.35;;;;;;;9.04;96.38;100327.72;5043100;28;20510;-47
2024/04/03 05:26:06;;;;;;;28.80;13.27;;;;;;;8.90;96.03;100327.25;5043553;28;20045;-50
2024/04/03 05:28:35;;;;;;;29.58;12.52;;;;;;;9.07;96.04;100315.94;5072031;28;20049;-53
2024/04/03 05:31:06;;;;;;;29.73;12.07;;;;;;;9.18;95.60;100322.00;5045094;28;20045;-52
2024/04/03 05:33:35;;;;;;;28.17;11.77;;;;;;;9.19;95.68;100312.19;5042162;28;20056;-51
2024/04/03 05:36:02;;;;;;;27.67;12.32;;;;;;;9.23;94.85;100314.44;5061207;28;20401;-52
2024/04/03 05:38:28;;;;;;;24.33;12.32;;;;;;;9.17;95.50;100314.16;5056407;28;20059;-50
2024/04/03 05:40:55;;;;;;;23.75;11.73;;;;;;;9.26;95.32;100312.47;5056830;28;20055;-47
2024/04/03 05:43:22;;;;;;;31.00;12.93;;;;;;;9.05;96.16;100310.78;5058711;28;20056;-49
2024/04/03 05:45:49;;;;;;;26.80;13.38;;;;;;;9.07;96.74;100314.13;5056774;28;20051;-52
2024/04/03 05:48:15;;;;;;;35.42;13.63;;;;;;;9.09;96.39;100306.84;5041475;28;20048;-50
2024/04/03 05:50:41;;;;;;;27.17;13.88;;;;;;;9.09;96.64;100316.66;5058048;28;20362;-47
2024/04/03 05:53:08;;;;;;;26.83;13.80;;;;;;;8.98;97.79;100309.66;5058802;28;20546;-52
2024/04/03 05:55:33;;;;;;;32.35;14.38;;;;;;;9.06;97.66;100303.63;5060112;28;20059;-51
2024/04/03 05:58:02;;;;;;;27.73;13.25;;;;;;;9.00;97.15;100301.53;5058126;28;20073;-51
2024/04/03 06:00:28;;;;;;;29.48;14.05;;;;;;;8.91;97.01;100305.03;5056569;28;20056;-50
2024/04/03 06:02:54;;;;;;;30.67;13.05;;;;;;;9.03;97.97;100303.91;5058967;28;20049;-53
2024/04/03 06:05:20;;;;;;;28.63;13.35;;;;;;;9.06;97.71;100300.97;5057800;28;20122;-53
2024/04/03 06:07:47;;;;;;;28.08;14.27;;;;;;;9.11;97.75;100298.75;5058243;28;20048;-46
2024/04/03 06:10:13;;;;;;;27.95;13.95;;;;;;;9.13;97.49;100296.78;5055530;28;20056;-52
2024/04/03 06:12:39;;;;;;;30.00;13.68;;;;;;;8.97;98.04;100304.47;5053918;28;20478;-53
2024/04/03 06:15:06;;;;;;;26.95;13.40;;;;;;;9.04;98.24;100298.47;5055314;28;20071;-46
2024/04/03 06:17:32;;;;;;;29.77;13.38;;;;;;;9.06;98.45;100296.50;5061091;28;20048;-50
2024/04/03 06:19:57;;;;;;;28.80;15.07;;;;;;;9.05;98.03;100294.00;5051502;28;20049;-51
2024/04/03 06:22:23;;;;;;;27.25;12.80;;;;;;;9.07;98.27;100294.66;5053348;28;20463;-53
2024/04/03 06:24:49;;;;;;;27.65;13.32;;;;;;;9.17;98.27;100298.19;5056133;28;20044;-48
2024/04/03 06:27:15;;;;;;;27.60;13.02;;;;;;;8.98;98.69;100292.88;5057747;28;20182;-49
2024/04/03 06:29:41;;;;;;;22.92;12.02;;;;;;;8.90;99.15;100292.69;5056815;28;20110;-52
2024/04/03 06:32:07;;;;;;;26.33;13.05;;;;;;;8.81;100.00;100292.53;5056941;28;20171;-49
2024/04/03 06:34:33;;;;;;;21.73;11.88;;;;;;;8.61;100.00;100295.28;5057990;28;20614;-51
2024/04/03 06:36:59;;;;;;;22.90;12.60;;;;;;;8.96;99.78;100294.81;5056672;28;20045;-52
2024/04/03 06:39:24;;;;;;;25.98;13.85;;;;;;;8.87;99.80;100287.66;5054611;28;20048;-53
2024/04/03 06:41:50;;;;;;;22.75;11.93;;;;;;;8.99;99.91;100289.22;5056400;28;20132;-51
2024/04/03 06:44:17;;;;;;;24.17;13.10;;;;;;;8.64;100.00;100284.41;5054980;28;20053;-53
2024/04/03 06:46:44;;;;;;;26.15;12.80;;;;;;;8.89;100.00;100277.72;5055871;28;20756;-53
2024/04/03 06:49:11;;;;;;;25.88;15.20;;;;;;;8.99;100.00;100283.91;5056143;28;20047;-50
2024/04/03 06:51:38;;;;;;;22.95;13.48;;;;;;;9.12;100.00;100285.31;5058050;28;20056;-47
2024/04/03 06:54:04;;;;;;;23.88;13.65;;;;;;;9.22;99.70;100272.03;5039692;28;20041;-51
2024/04/03 06:56:33;;;;;;;23.55;13.55;;;;;;;9.24;99.89;100278.03;5058363;28;20044;-50
2024/04/03 06:58:58;;;;;;;28.60;13.27;;;;;;;9.41;99.12;100281.84;5061126;28;20568;-50
2024/04/03 07:01:24;;;;;;;27.52;14.32;;;;;;;9.51;98.83;100275.53;5056125;28;20056;-49
2024/04/03 07:03:51;;;;;;;22.00;13.13;;;;;;;9.43;98.45;100277.22;5055810;28;20423;-53
2024/04/03 07:06:20;;;;;;;24.10;13.82;;;;;;;9.45;99.09;100268.13;5050729;28;20567;-53
2024/04/03 07:08:46;;;;;;;29.40;14.40;;;;;;;9.44;99.26;100274.44;5050207;28;20766;-53
2024/04/03 07:11:11;;;;;;;28.00;14.27;;;;;;;9.41;99.80;100280.03;5039818;28;20493;-50
2024/04/03 07:13:37;;;;;;;26.40;13.20;;;;;;;9.43;99.16;100269.25;5051658;28;20055;-52
2024/04/03 07:16:04;;;;;;;25.08;12.95;;;;;;;9.52;98.65;100271.91;5059942;28;20072;-54
2024/04/03 07:18:30;;;;;;;24.23;12.82;;;;;;;9.50;99.66;100276.53;5068396;28;20048;-52
2024/04/03 07:20:58;;;;;;;24.85;12.85;;;;;;;9.49;99.59;100272.19;5058793;28;20044;-54
2024/04/03 07:23:30;;;;;;;20.45;12.35;;;;;;;9.53;99.33;100265.59;5062561;28;20057;-54
2024/04/03 07:25:57;;;;;;;24.35;12.68;;;;;;;9.36;99.95;100270.75;5035496;28;20071;-50
2024/04/03 07:28:24;;;;;;;22.27;11.93;;;;;;;9.51;99.65;100280.88;5054621;28;20049;-53
2024/04/03 07:30:50;;;;;;;21.98;12.20;;;;;;;9.05;99.89;100272.72;5064766;28;20049;-54
2024/04/03 07:33:17;;;;;;;20.55;12.60;;;;;;;9.32;100.00;100272.88;5062085;28;20044;-52
2024/04/03 07:35:43;;;;;;;22.38;12.23;;;;;;;9.59;99.36;100270.38;5058146;28;20062;-50
2024/04/03 07:38:09;;;;;;;25.33;12.38;;;;;;;9.78;98.77;100268.63;5063439;28;20048;-52
2024/04/03 07:40:35;;;;;;;23.25;12.45;;;;;;;9.85;98.59;100273.25;5055141;28;20075;-52
2024/04/03 07:43:02;;;;;;;18.63;11.65;;;;;;;9.79;99.26;100271.16;5064036;28;20045;-51
2024/04/03 07:45:28;;;;;;;21.33;11.60;;;;;;;9.88;98.71;100267.63;5077694;28;20044;-52
2024/04/03 07:47:54;;;;;;;23.55;12.90;;;;;;;9.60;99.64;100277.34;5049304;28;20405;-53
2024/04/03 07:50:20;;;;;;;18.08;10.48;;;;;;;9.88;99.21;100272.09;5048600;28;20052;-53
2024/04/03 07:52:46;;;;;;;19.23;10.65;;;;;;;9.71;99.12;100276.34;5064621;28;20045;-53
2024/04/03 07:55:13;;;;;;;17.73;10.88;;;;;;;9.66;99.57;100261.81;5065934;28;20147;-48
2024/04/03 07:57:39;;;;;;;18.65;10.70;;;;;;;9.77;100.00;100266.94;5042935;28;20049;-52
2024/04/03 08:00:09;;;;;;;16.85;9.85;;;;;;;9.96;99.55;100272.22;5045481;28;20048;-51
2024/04/03 08:02:41;;;;;;;19.67;11.07;;;;;;;10.08;99.22;100272.91;5048691;28;20391;-51
2024/04/03 08:05:08;;;;;;;18.63;10.70;;;;;;;10.08;98.93;100273.72;5056734;28;20045;-54
2024/04/03 08:07:35;;;;;;;23.77;10.40;;;;;;;10.08;98.68;100272.91;5061508;28;20062;-49
2024/04/03 08:10:06;;;;;;;17.83;9.15;;;;;;;10.22;99.16;100269.75;5053671;28;20060;-55
2024/04/03 08:12:32;;;;;;;;;;;;;;;10.09;99.67;100264.75;5061188;28;20056;-51
2024/04/03 08:14:58;;;;;;;16.10;8.90;;;;;;;10.25;99.20;100272.97;5060157;28;19960;-53
2024/04/03 08:17:27;;;;;;;14.77;8.02;;;;;;;9.96;99.43;100264.22;5069646;28;20049;-50
2024/04/03 08:19:54;;;;;;;15.90;8.30;;;;;;;10.36;98.82;100270.09;5059888;28;20048;-53
2024/04/03 08:22:20;;;;;;;13.60;8.27;;;;;;;10.37;98.62;100263.78;5055890;28;20052;-49
2024/04/03 08:24:48;;;;;;;16.70;8.52;;;;;;;10.06;98.86;100258.88;5062373;28;20044;-51
2024/04/03 08:27:14;;;;;;;12.20;7.38;;;;;;;10.18;98.78;100263.88;5056594;28;20056;-54
2024/04/03 08:29:43;;;;;;;12.23;7.70;;;;;;;10.18;99.57;100263.88;5056857;28;20051;-52
2024/04/03 08:32:13;;;;;;;12.50;7.53;;;;;;;10.35;98.86;100263.09;5075849;28;20050;-54
2024/04/03 08:34:39;;;;;;;9.45;6.55;;;;;;;10.51;98.55;100256.28;5079638;22;20048;-50
2024/04/03 08:37:06;;;;;;;13.38;6.78;;;;;;;10.30;98.84;100262.69;5064437;28;20051;-53
2024/04/03 08:39:32;;;;;;;11.93;7.32;;;;;;;10.32;98.01;100255.41;5069937;28;20050;-53
2024/04/03 08:42:00;;;;;;;10.70;5.95;;;;;;;10.09;99.10;100261.25;5064527;28;20048;-55
2024/04/03 08:44:28;;;;;;;11.15;6.47;;;;;;;10.46;98.69;100262.06;5067537;28;20049;-46
2024/04/03 08:46:55;;;;;;;10.60;6.70;;;;;;;10.52;98.10;100265.97;5069038;28;20538;-48
2024/04/03 08:49:28;;;;;;;11.57;6.47;;;;;;;10.56;97.15;100265.53;5068120;28;20510;-52
2024/04/03 08:52:04;;;;;;;10.65;5.88;;;;;;;10.58;98.06;100260.91;5065877;28;20422;-51
2024/04/03 08:54:30;;;;;;;10.07;6.05;;;;;;;10.90;97.56;100265.75;5062131;28;20078;-50
2024/04/03 08:56:58;;;;;;;8.98;5.80;;;;;;;10.89;97.04;100247.25;5068210;28;20049;-53
2024/04/03 08:59:24;;;;;;;9.18;5.93;;;;;;;11.23;96.38;100258.09;5063434;28;20488;-52
2024/04/03 09:01:51;;;;;;;9.13;5.97;;;;;;;11.64;94.65;100260.13;5068914;28;20100;-54
2024/04/03 09:04:19;;;;;;;7.72;5.65;;;;;;;11.34;94.41;100257.84;5064341;28;20054;-52
2024/04/03 09:06:45;;;;;;;9.02;5.65;;;;;;;11.68;94.96;100260.63;5063781;28;20045;-50
2024/04/03 09:09:25;;;;;;;12.02;5.95;;;;;;;11.80;93.00;100252.22;5064314;28;20498;-52
2024/04/03 09:12:01;;;;;;;8.55;5.28;;;;;;;11.69;94.13;100255.16;5078106;28;20400;-54
2024/04/03 09:14:28;;;;;;;7.95;4.18;;;;;;;11.48;94.17;100252.78;5048629;28;20055;-53
2024/04/03 09:17:01;;;;;;;7.40;4.00;;;;;;;11.42;93.43;100250.75;5072475;28;20440;-54
2024/04/03 09:19:28;;;;;;;8.85;4.15;;;;;;;11.11;95.90;100239.63;5074240;28;20058;-47
2024/04/03 09:21:55;;;;;;;7.78;3.75;;;;;;;11.19;95.72;100245.03;5064920;28;20048;-55
2024/04/03 09:24:21;;;;;;;7.35;3.97;;;;;;;11.30;95.45;100245.81;5061737;28;20066;-52
2024/04/03 09:26:56;;;;;;;6.82;4.03;;;;;;;11.46;95.12;100244.09;5066827;28;20053;-50
2024/04/03 09:29:23;;;;;;;6.80;4.13;;;;;;;11.25;94.62;100234.75;5059921;28;20048;-53
2024/04/03 09:31:50;;;;;;;7.80;4.28;;;;;;;11.70;95.34;100238.16;5084201;28;20067;-51
2024/04/03 09:34:16;;;;;;;12.20;5.45;;;;;;;11.83;94.39;100237.72;5063794;28;20052;-51
2024/04/03 09:36:42;;;;;;;5.93;3.88;;;;;;;12.02;93.87;100236.66;5061379;28;20044;-55
2024/04/03 09:39:11;;;;;;;7.40;3.95;;;;;;;12.28;93.20;100242.78;5079354;28;20044;-51
2024/04/03 09:41:41;;;;;;;7.95;3.80;;;;;;;12.13;92.89;100233.69;5061570;28;20498;-51
2024/04/03 09:44:10;;;;;;;7.80;3.60;;;;;;;12.05;93.17;100239.88;5067607;28;20050;-52
2024/04/03 09:46:58;;;;;;;6.68;3.90;;;;;;;12.09;92.58;100240.38;5061817;28;20066;-49
2024/04/03 09:49:27;;;;;;;7.07;3.22;;;;;;;11.66;93.75;100238.59;5069708;28;20056;-51
2024/04/03 09:51:56;;;;;;;5.90;3.13;;;;;;;11.33;94.78;100240.16;5071037;28;20058;-54
2024/04/03 09:54:24;;;;;;;4.57;3.03;;;;;;;11.34;94.81;100241.84;5082912;28;20048;-51
2024/04/03 09:56:50;;;;;;;6.50;3.20;;;;;;;11.47;94.30;100245.78;5072459;28;20044;-50
2024/04/03 09:59:19;;;;;;;5.63;2.80;;;;;;;11.24;95.61;100246.44;5069101;28;20499;-52
2024/04/03 10:01:45;;;;;;;4.13;2.47;;;;;;;11.26;94.23;100239.94;5064208;28;20703;-53
2024/04/03 10:04:12;;;;;;;4.32;3.20;;;;;;;11.35;94.40;100238.19;5064936;28;20087;-53
2024/04/03 10:06:41;;;;;;;5.93;3.38;;;;;;;11.37;94.47;100231.72;5068181;28;20052;-51
2024/04/03 10:09:17;;;;;;;8.18;3.53;;;;;;;11.41;94.46;100232.22;5062273;28;20040;-50
2024/04/03 10:11:58;;;;;;;4.72;3.22;;;;;;;11.60;93.11;100237.41;5075001;28;20815;-49
2024/04/03 10:14:29;;;;;;;5.78;3.15;;;;;;;11.32;95.25;100225.97;5060186;28;20109;-54
2024/04/03 10:16:55;;;;;;;6.82;3.40;;;;;;;11.44;94.06;100231.94;5078817;28;20041;-49
2024/04/03 10:19:23;;;;;;;4.78;3.20;;;;;;;11.43;95.59;100224.91;5062437;28;20056;-51
2024/04/03 10:21:48;;;;;;;8.15;4.47;;;;;;;11.15;96.53;100221.50;5066802;28;20055;-51
2024/04/03 10:24:17;;;;;;;6.43;3.38;;;;;;;11.30;97.32;100222.66;5072470;28;20495;-54
2024/04/03 10:26:47;;;;;;;6.80;3.72;;;;;;;11.80;94.91;100225.50;5061946;28;20491;-50
2024/04/03 10:29:13;;;;;;;6.90;4.35;;;;;;;11.67;95.16;100221.59;5065362;28;20067;-48
2024/04/03 10:31:39;;;;;;;8.38;4.25;;;;;;;11.95;93.44;100215.09;5061782;28;20083;-51
2024/04/03 10:34:05;;;;;;;7.72;4.45;;;;;;;12.14;92.85;100209.50;5063502;28;20057;-49
2024/04/03 10:36:31;;;;;;;8.50;4.72;;;;;;;12.13;92.57;100213.16;5082232;28;20044;-49
2024/04/03 10:38:57;;;;;;;9.88;4.75;;;;;;;12.20;92.35;100218.69;5094451;28;20135;-52
2024/04/03 10:41:23;;;;;;;8.00;5.57;;;;;;;12.36;92.09;100213.44;5091199;28;20047;-53
2024/04/03 10:43:49;;;;;;;6.05;4.68;;;;;;;12.34;91.40;100215.44;5089438;28;20048;-52
2024/04/03 10:46:26;;;;;;;9.15;4.88;;;;;;;12.37;91.67;100210.63;5066115;28;20044;-50
2024/04/03 10:48:58;;;;;;;9.32;5.63;;;;;;;12.15;92.02;100210.34;5075107;28;20043;-54
2024/04/03 10:51:25;;;;;;;9.93;5.63;;;;;;;12.06;92.56;100216.66;5091634;28;20434;-52
2024/04/03 10:53:51;;;;;;;8.95;5.32;;;;;;;12.11;91.72;100206.34;5081506;28;20050;-51
2024/04/03 10:56:18;;;;;;;10.65;6.03;;;;;;;12.13;91.93;100202.47;5063474;28;20051;-49
2024/04/03 10:58:44;;;;;;;9.23;5.57;;;;;;;12.13;92.16;100202.47;5053376;28;20792;-54
2024/04/03 11:01:11;;;;;;;10.98;5.10;;;;;;;12.04;91.54;100207.97;5064449;28;20563;-52
2024/04/03 11:03:43;;;;;;;7.68;5.35;;;;;;;11.79;93.86;100202.47;5078850;28;20045;-54
2024/04/03 11:06:09;;;;;;;11.73;5.30;;;;;;;11.96;93.54;100196.25;5073475;28;20044;-51
2024/04/03 11:08:36;;;;;;;7.85;5.20;;;;;;;11.73;93.80;100195.09;5080596;28;20144;-49
2024/04/03 11:11:07;;;;;;;9.40;4.95;;;;;;;11.89;93.46;100203.22;5068208;28;20052;-49
2024/04/03 11:13:33;;;;;;;8.55;5.50;;;;;;;11.74;93.61;100207.47;5062532;28;20047;-52
2024/04/03 11:15:59;;;;;;;10.45;5.93;;;;;;;11.64;93.18;100205.91;5083419;28;20384;-50
2024/04/03 11:18:26;;;;;;;11.13;5.85;;;;;;;11.46;95.12;100205.91;5082625;28;20044;-48
2024/04/03 11:20:52;;;;;;;8.25;5.85;;;;;;;11.78;94.01;100203.50;5069306;28;20281;-50
2024/04/03 11:23:21;;;;;;;10.00;5.72;;;;;;;11.91;93.68;100200.41;5083422;28;20078;-51